Time;durP1;ratioP1;P1;durP2;ratioP2;P2;SDS_P1;SDS_P2;PMS_P1;PMS_P2;Temp;Humidity;BMP_temperature;BMP_pressure;BME280_temperature;BME280_humidity;BME280_pressure;Samples;Min_cycle;Max_cycle;Signal;HPM_P1;HPM_P2
2023/03/10 00:00:38;;;;;;;41.95;18.23;;;1.50;99.90;;;;;;5047859;28;20043;-44
2023/03/10 00:03:04;;;;;;;45.10;19.85;;;1.60;99.90;;;;;;5047475;28;20482;-44
2023/03/10 00:05:30;;;;;;;37.95;18.77;;;1.50;99.90;;;;;;5054452;28;20531;-45
2023/03/10 00:07:55;;;;;;;44.25;19.02;;;1.50;99.90;;;;;;5047406;28;20070;-44
2023/03/10 00:10:21;;;;;;;40.13;17.48;;;1.60;99.90;;;;;;5047499;28;20638;-44
2023/03/10 00:12:47;;;;;;;42.67;18.17;;;1.60;99.90;;;;;;5047510;28;20040;-44
2023/03/10 00:15:13;;;;;;;35.88;18.23;;;1.50;99.90;;;;;;5047489;28;20537;-44
2023/03/10 00:17:39;;;;;;;39.35;18.88;;;1.50;99.90;;;;;;5047420;28;20544;-44
2023/03/10 00:20:06;;;;;;;41.28;17.55;;;1.50;99.90;;;;;;5046706;28;20028;-46
2023/03/10 00:22:35;;;;;;;45.00;19.42;;;1.50;99.90;;;;;;5044826;28;20013;-45
2023/03/10 00:25:01;;;;;;;35.50;16.63;;;1.50;99.90;;;;;;5046202;28;20036;-46
2023/03/10 00:27:26;;;;;;;37.42;18.20;;;1.50;99.90;;;;;;5045045;28;20025;-47
2023/03/10 00:29:52;;;;;;;36.85;16.88;;;1.50;99.90;;;;;;5047352;28;20029;-45
2023/03/10 00:32:18;;;;;;;40.97;16.98;;;1.50;99.90;;;;;;5054379;28;20013;-45
2023/03/10 00:34:43;;;;;;;35.78;16.30;;;1.50;99.90;;;;;;5046961;28;20025;-44
2023/03/10 00:37:10;;;;;;;36.95;17.27;;;1.50;99.90;;;;;;5046686;28;20462;-44
2023/03/10 00:39:35;;;;;;;38.53;17.08;;;1.60;99.90;;;;;;5047204;28;20108;-46
2023/03/10 00:42:01;;;;;;;33.60;15.70;;;1.60;99.90;;;;;;5047058;28;20100;-44
2023/03/10 00:44:27;;;;;;;36.20;16.83;;;1.60;99.90;;;;;;5046625;28;20478;-44
2023/03/10 00:46:53;;;;;;;35.40;15.68;;;1.60;99.90;;;;;;5044076;28;20112;-48
2023/03/10 00:49:19;;;;;;;37.28;15.88;;;1.60;99.90;;;;;;5046078;28;20387;-46
2023/03/10 00:51:44;;;;;;;32.42;14.43;;;1.60;99.90;;;;;;5046830;28;20021;-48
2023/03/10 00:54:10;;;;;;;35.45;15.80;;;1.60;99.90;;;;;;5046758;28;20229;-46
2023/03/10 00:56:35;;;;;;;31.60;15.10;;;1.60;99.90;;;;;;5047136;28;20025;-45
2023/03/10 00:59:01;;;;;;;35.00;14.93;;;1.60;99.90;;;;;;5047158;28;20052;-45
2023/03/10 01:01:30;;;;;;;31.65;14.40;;;1.60;99.90;;;;;;5047182;28;20218;-45
2023/03/10 01:03:57;;;;;;;33.80;14.68;;;1.50;99.90;;;;;;5045522;28;20025;-47
2023/03/10 01:06:23;;;;;;;27.55;13.02;;;1.50;99.90;;;;;;5046495;28;20024;-45
2023/03/10 01:08:49;;;;;;;33.85;16.15;;;1.60;99.90;;;;;;5046768;28;20061;-46
2023/03/10 01:11:17;;;;;;;29.65;14.77;;;1.50;99.90;;;;;;5048432;28;20434;-44
2023/03/10 01:13:43;;;;;;;32.17;14.07;;;1.50;99.90;;;;;;5050570;28;20021;-47
2023/03/10 01:16:09;;;;;;;29.33;13.90;;;1.60;99.90;;;;;;5050803;28;20048;-45
2023/03/10 01:18:35;;;;;;;31.48;13.95;;;1.60;99.90;;;;;;5050872;28;20485;-45
2023/03/10 01:21:00;;;;;;;31.42;14.30;;;1.60;99.90;;;;;;5051004;28;20405;-45
2023/03/10 01:23:26;;;;;;;31.00;12.20;;;1.60;99.90;;;;;;5050895;28;20025;-45
2023/03/10 01:25:52;;;;;;;24.90;12.13;;;1.60;99.90;;;;;;5050707;28;20368;-47
2023/03/10 01:28:20;;;;;;;26.08;11.73;;;1.60;99.90;;;;;;5051120;28;20017;-44
2023/03/10 01:30:47;;;;;;;28.95;13.45;;;1.50;99.90;;;;;;5050723;28;20017;-44
2023/03/10 01:33:14;;;;;;;25.98;11.65;;;1.50;99.90;;;;;;5048899;28;20064;-45
2023/03/10 01:35:40;;;;;;;25.60;10.98;;;1.60;99.90;;;;;;5050475;28;20021;-44
2023/03/10 01:38:06;;;;;;;25.65;12.57;;;1.50;99.90;;;;;;5050236;28;20021;-45
2023/03/10 01:40:32;;;;;;;25.08;11.40;;;1.60;99.90;;;;;;5050545;28;20017;-45
2023/03/10 01:43:26;;;;;;;22.42;10.80;;;1.50;99.90;;;;;;5050480;28;20112;-45
2023/03/10 01:45:51;;;;;;;22.33;9.93;;;1.60;99.90;;;;;;5047265;28;20029;-45
2023/03/10 01:48:19;;;;;;;20.88;10.48;;;1.60;99.90;;;;;;5049346;28;20500;-44
2023/03/10 01:50:47;;;;;;;20.05;8.98;;;1.60;99.90;;;;;;5050737;28;20047;-44
2023/03/10 01:53:14;;;;;;;21.15;9.05;;;1.60;99.90;;;;;;5050343;28;20023;-44
2023/03/10 01:55:47;;;;;;;22.02;9.43;;;1.60;99.90;;;;;;5050409;28;20217;-44
2023/03/10 01:58:15;;;;;;;18.95;8.38;;;1.60;99.90;;;;;;5050457;28;20021;-45
2023/03/10 02:00:42;;;;;;;19.80;8.90;;;1.50;99.90;;;;;;5048949;28;20040;-46
2023/03/10 02:03:39;;;;;;;21.10;8.07;;;1.60;99.90;;;;;;5049641;28;20463;-45
2023/03/10 02:06:09;;;;;;;19.55;9.18;;;1.50;99.90;;;;;;5048588;28;20108;-46
2023/03/10 02:08:42;;;;;;;15.75;7.57;;;1.60;99.90;;;;;;5048495;28;20056;-46
2023/03/10 02:11:07;;;;;;;20.55;8.88;;;1.60;99.90;;;;;;5050105;28;20729;-45
2023/03/10 02:13:33;;;;;;;16.48;7.82;;;1.60;99.90;;;;;;5046013;28;20025;-44
2023/03/10 02:15:59;;;;;;;16.33;7.72;;;1.60;99.90;;;;;;5049824;28;20017;-45
2023/03/10 02:18:25;;;;;;;15.70;7.70;;;1.60;99.90;;;;;;5049538;28;20020;-47
2023/03/10 02:20:50;;;;;;;17.10;8.13;;;1.60;99.90;;;;;;5047952;28;20454;-47
2023/03/10 02:23:30;;;;;;;18.98;8.25;;;1.60;99.90;;;;;;5049801;28;20017;-46
2023/03/10 02:26:04;;;;;;;16.35;8.52;;;1.60;99.90;;;;;;5045920;28;20013;-46
2023/03/10 02:28:29;;;;;;;17.92;9.02;;;1.60;99.90;;;;;;5048350;28;20493;-45
2023/03/10 02:30:56;;;;;;;15.40;7.65;;;1.60;99.90;;;;;;5049674;28;20009;-45
2023/03/10 02:33:27;;;;;;;17.55;7.82;;;1.70;99.90;;;;;;5047872;28;20317;-46
2023/03/10 02:35:53;;;;;;;19.27;8.00;;;1.60;99.90;;;;;;5049173;28;20522;-45
2023/03/10 02:38:19;;;;;;;17.83;8.55;;;1.60;99.90;;;;;;5049501;28;20013;-45
2023/03/10 02:40:46;;;;;;;14.63;7.68;;;1.60;99.90;;;;;;5049717;28;20074;-45
2023/03/10 02:43:27;;;;;;;19.25;8.38;;;1.60;99.90;;;;;;5049054;28;20029;-44
2023/03/10 02:45:57;;;;;;;15.23;7.57;;;1.60;99.90;;;;;;5047541;28;20505;-45
2023/03/10 02:48:29;;;;;;;18.53;8.67;;;1.60;99.90;;;;;;5048973;28;20039;-45
2023/03/10 02:50:57;;;;;;;16.23;8.20;;;1.60;99.90;;;;;;5046873;28;20075;-45
2023/03/10 02:53:25;;;;;;;13.85;6.90;;;1.60;99.90;;;;;;5049104;28;20017;-45
2023/03/10 02:55:51;;;;;;;18.05;7.55;;;1.60;99.90;;;;;;5049255;28;20082;-47
2023/03/10 02:58:18;;;;;;;19.02;8.05;;;1.70;99.90;;;;;;5049418;28;20017;-45
2023/03/10 03:00:46;;;;;;;14.32;7.60;;;1.60;99.90;;;;;;5049082;28;20572;-46
2023/03/10 03:03:12;;;;;;;17.35;7.53;;;1.60;99.90;;;;;;5048497;28;20606;-44
2023/03/10 03:05:39;;;;;;;14.27;6.95;;;1.60;99.90;;;;;;5047620;28;20387;-46
2023/03/10 03:08:05;;;;;;;15.63;6.93;;;1.70;99.90;;;;;;5049118;28;20013;-46
2023/03/10 03:10:32;;;;;;;14.95;7.65;;;1.60;99.90;;;;;;5048913;28;20082;-45
2023/03/10 03:12:58;;;;;;;13.18;6.25;;;1.60;99.90;;;;;;5048723;28;20260;-46
2023/03/10 03:15:24;;;;;;;14.48;7.93;;;1.60;99.90;;;;;;5048687;28;20100;-45
2023/03/10 03:17:50;;;;;;;13.07;7.07;;;1.60;99.90;;;;;;5048736;28;20025;-45
2023/03/10 03:20:16;;;;;;;16.98;8.18;;;1.60;99.90;;;;;;5048852;28;20025;-45
2023/03/10 03:22:44;;;;;;;13.60;6.65;;;1.60;99.90;;;;;;5043803;28;20025;-45
2023/03/10 03:25:11;;;;;;;15.55;7.60;;;1.60;99.90;;;;;;5047971;28;20053;-46
2023/03/10 03:27:37;;;;;;;12.27;6.13;;;1.60;99.90;;;;;;5049051;28;20483;-45
2023/03/10 03:30:10;;;;;;;12.15;5.68;;;1.60;99.90;;;;;;5045102;28;20057;-46
2023/03/10 03:32:36;;;;;;;13.00;6.65;;;1.60;99.90;;;;;;5045126;28;20037;-45
2023/03/10 03:35:02;;;;;;;11.75;6.22;;;1.60;99.90;;;;;;5048156;28;20028;-45
2023/03/10 03:37:28;;;;;;;13.27;6.47;;;1.60;99.90;;;;;;5048683;28;20382;-45
2023/03/10 03:39:53;;;;;;;10.88;6.30;;;1.60;99.90;;;;;;5048605;28;20029;-47
2023/03/10 03:42:19;;;;;;;15.52;6.68;;;1.60;99.90;;;;;;5048356;28;20271;-45
2023/03/10 03:44:45;;;;;;;12.25;6.38;;;1.60;99.90;;;;;;5048024;28;20020;-46
2023/03/10 03:47:10;;;;;;;10.10;6.25;;;1.60;99.90;;;;;;5048095;28;20029;-46
2023/03/10 03:49:37;;;;;;;11.48;5.82;;;1.60;99.90;;;;;;5048309;28;20547;-45
2023/03/10 03:52:04;;;;;;;10.35;5.53;;;1.60;99.90;;;;;;5048274;28;20043;-45
2023/03/10 03:54:30;;;;;;;10.15;5.55;;;1.60;99.90;;;;;;5048057;28;20325;-46
2023/03/10 03:56:55;;;;;;;10.13;5.07;;;1.60;99.90;;;;;;5048564;28;20063;-47
2023/03/10 03:59:21;;;;;;;10.27;5.75;;;1.60;99.90;;;;;;5047999;28;20497;-45
2023/03/10 04:01:46;;;;;;;10.25;5.43;;;1.60;99.90;;;;;;5047796;28;20120;-45
2023/03/10 04:04:12;;;;;;;10.30;5.00;;;1.60;99.90;;;;;;5047917;28;20045;-45
2023/03/10 04:06:38;;;;;;;9.75;5.47;;;1.60;99.90;;;;;;5047791;28;20098;-45
2023/03/10 04:09:03;;;;;;;10.40;5.30;;;1.60;99.90;;;;;;5046177;28;20029;-45
2023/03/10 04:11:29;;;;;;;7.50;4.55;;;1.60;99.90;;;;;;5047888;28;20105;-45
2023/03/10 04:13:55;;;;;;;9.52;4.82;;;1.60;99.90;;;;;;5045258;28;20040;-46
2023/03/10 04:16:20;;;;;;;7.68;4.53;;;1.60;99.90;;;;;;5047577;28;20367;-46
2023/03/10 04:18:46;;;;;;;8.77;4.78;;;1.60;99.90;;;;;;5047997;28;20364;-44
2023/03/10 04:21:11;;;;;;;7.93;4.50;;;1.50;99.90;;;;;;5048180;28;20055;-46
2023/03/10 04:23:40;;;;;;;8.27;4.45;;;1.50;99.90;;;;;;5047922;28;20082;-44
2023/03/10 04:26:07;;;;;;;8.27;5.25;;;1.50;99.90;;;;;;5047799;28;20096;-45
2023/03/10 04:28:33;;;;;;;8.30;4.80;;;1.50;99.90;;;;;;5047524;28;20032;-45
2023/03/10 04:30:58;;;;;;;10.65;4.82;;;1.60;99.90;;;;;;5048217;28;20221;-45
2023/03/10 04:33:25;;;;;;;9.73;4.65;;;1.50;99.90;;;;;;5047466;28;20021;-46
2023/03/10 04:35:51;;;;;;;8.60;5.07;;;1.50;99.90;;;;;;5043870;28;20462;-45
2023/03/10 04:38:17;;;;;;;6.95;4.65;;;1.50;99.90;;;;;;5044624;28;20060;-45
2023/03/10 04:40:42;;;;;;;9.18;5.15;;;1.60;99.90;;;;;;5048787;28;20056;-45
2023/03/10 04:43:08;;;;;;;7.28;4.60;;;1.60;99.90;;;;;;5048577;28;20040;-45
2023/03/10 04:45:33;;;;;;;7.68;4.00;;;1.60;99.90;;;;;;5050309;28;20500;-45
2023/03/10 04:47:59;;;;;;;6.95;4.00;;;1.60;99.90;;;;;;5052625;28;20261;-45
2023/03/10 04:50:25;;;;;;;6.30;4.05;;;1.60;99.90;;;;;;5052594;28;20021;-45
2023/03/10 04:52:50;;;;;;;7.25;4.00;;;1.60;99.90;;;;;;5052297;28;20437;-44
2023/03/10 04:55:16;;;;;;;6.93;3.97;;;1.60;99.90;;;;;;5052307;28;20104;-45
2023/03/10 04:57:42;;;;;;;4.97;3.80;;;1.70;99.90;;;;;;5052758;28;20028;-44
2023/03/10 05:00:11;;;;;;;6.38;3.85;;;1.60;99.90;;;;;;5052436;28;20040;-45
2023/03/10 05:02:38;;;;;;;7.80;4.47;;;1.60;99.90;;;;;;5052180;28;20025;-44
2023/03/10 05:05:04;;;;;;;7.05;4.13;;;1.60;99.90;;;;;;5052094;28;20021;-45
2023/03/10 05:07:30;;;;;;;8.90;4.75;;;1.60;99.90;;;;;;5052437;28;20059;-45
2023/03/10 05:09:56;;;;;;;5.82;3.72;;;1.60;99.90;;;;;;5060835;28;20419;-44
2023/03/10 05:12:22;;;;;;;6.30;3.95;;;1.60;99.90;;;;;;5052394;28;20036;-44
2023/03/10 05:14:47;;;;;;;7.95;5.18;;;1.50;99.90;;;;;;5052377;28;20031;-44
2023/03/10 05:17:13;;;;;;;6.97;3.78;;;1.50;99.90;;;;;;5052319;28;20124;-44
2023/03/10 05:19:38;;;;;;;9.05;5.50;;;1.60;99.90;;;;;;5052320;28;20037;-45
2023/03/10 05:22:05;;;;;;;6.88;4.53;;;1.60;99.90;;;;;;5051941;28;20032;-45
2023/03/10 05:24:31;;;;;;;6.90;4.22;;;1.60;99.90;;;;;;5051649;28;20706;-47
2023/03/10 05:26:57;;;;;;;8.52;4.85;;;1.60;99.90;;;;;;5052221;28;20033;-45
2023/03/10 05:29:22;;;;;;;6.55;4.50;;;1.70;99.90;;;;;;5051929;28;20053;-44
2023/03/10 05:31:48;;;;;;;6.88;4.25;;;1.60;99.90;;;;;;5052265;28;20036;-45
2023/03/10 05:34:14;;;;;;;9.45;5.07;;;1.70;99.90;;;;;;5051967;28;20024;-45
2023/03/10 05:36:42;;;;;;;9.18;5.50;;;1.70;99.90;;;;;;5052131;28;20065;-44
2023/03/10 05:39:08;;;;;;;7.95;5.28;;;1.70;99.90;;;;;;5051733;28;20032;-45
2023/03/10 05:41:35;;;;;;;8.30;5.03;;;1.70;99.90;;;;;;5051882;28;20036;-44
2023/03/10 05:44:00;;;;;;;9.55;5.50;;;1.70;99.90;;;;;;5052246;28;20040;-44
2023/03/10 05:46:26;;;;;;;9.48;5.68;;;1.70;99.90;;;;;;5051277;28;20033;-45
2023/03/10 05:48:52;;;;;;;10.18;5.53;;;1.70;99.90;;;;;;5051498;28;20049;-44
2023/03/10 05:51:18;;;;;;;10.18;6.13;;;1.70;99.90;;;;;;5051726;28;20071;-44
2023/03/10 05:53:44;;;;;;;9.77;5.75;;;1.70;99.90;;;;;;5051471;28;20032;-44
2023/03/10 05:56:15;;;;;;;12.63;7.22;;;1.70;99.90;;;;;;5051086;28;20433;-45
2023/03/10 05:58:42;;;;;;;11.57;6.85;;;1.70;99.90;;;;;;5051992;28;20041;-45
2023/03/10 06:01:08;;;;;;;10.98;6.95;;;1.70;99.90;;;;;;5051687;28;20025;-47
2023/03/10 06:03:34;;;;;;;11.07;6.70;;;1.70;99.90;;;;;;5051359;28;20021;-45
2023/03/10 06:06:00;;;;;;;12.88;8.18;;;1.70;99.90;;;;;;5050851;28;20060;-46
2023/03/10 06:08:26;;;;;;;10.85;6.68;;;1.70;99.90;;;;;;5057259;28;20109;-45
2023/03/10 06:10:52;;;;;;;10.45;6.97;;;1.70;99.90;;;;;;5051302;28;20021;-44
2023/03/10 06:13:19;;;;;;;10.75;7.72;;;1.70;99.90;;;;;;5051582;28;20029;-45
2023/03/10 06:15:53;;;;;;;12.00;7.43;;;1.80;99.90;;;;;;5051178;28;20025;-45
2023/03/10 06:18:19;;;;;;;11.65;6.88;;;1.80;99.90;;;;;;5051081;28;20024;-45
2023/03/10 06:20:46;;;;;;;11.80;7.53;;;1.80;99.90;;;;;;5051353;28;20059;-44
2023/03/10 06:23:13;;;;;;;13.98;8.25;;;1.80;99.90;;;;;;5050858;28;20032;-45
2023/03/10 06:25:39;;;;;;;13.73;8.52;;;1.80;99.90;;;;;;5050902;28;20044;-46
2023/03/10 06:28:05;;;;;;;13.32;7.25;;;1.80;99.90;;;;;;5050845;28;20021;-45
2023/03/10 06:30:30;;;;;;;14.45;7.53;;;1.80;99.90;;;;;;5050774;28;20021;-45
2023/03/10 06:32:57;;;;;;;14.13;8.23;;;1.80;99.90;;;;;;5050139;28;20478;-45
2023/03/10 06:35:23;;;;;;;13.15;8.00;;;1.80;99.90;;;;;;5050505;28;20021;-45
2023/03/10 06:37:48;;;;;;;14.02;8.38;;;1.70;99.90;;;;;;5049153;28;20035;-45
2023/03/10 06:40:14;;;;;;;14.98;8.48;;;1.80;99.90;;;;;;5047686;28;20028;-44
2023/03/10 06:42:40;;;;;;;14.02;8.05;;;1.80;99.90;;;;;;5050485;28;20122;-44
2023/03/10 06:45:07;;;;;;;12.98;7.97;;;1.80;99.90;;;;;;5050584;28;20028;-44
2023/03/10 06:47:33;;;;;;;13.50;8.63;;;1.90;99.90;;;;;;5049427;28;20036;-44
2023/03/10 06:50:00;;;;;;;14.63;8.45;;;1.90;99.90;;;;;;5050086;28;20309;-45
2023/03/10 06:52:25;;;;;;;11.35;7.20;;;2.00;99.90;;;;;;5050447;28;20017;-45
2023/03/10 06:54:51;;;;;;;13.10;8.10;;;2.00;99.90;;;;;;5050368;28;20035;-46
2023/03/10 06:57:17;;;;;;;11.50;7.30;;;2.10;99.90;;;;;;5050009;28;20025;-47
2023/03/10 06:59:42;;;;;;;16.02;8.10;;;2.20;99.90;;;;;;5050154;28;20025;-45
2023/03/10 07:02:12;;;;;;;14.10;8.00;;;2.20;99.90;;;;;;5048926;28;20047;-45
2023/03/10 07:04:38;;;;;;;9.80;7.03;;;2.20;99.90;;;;;;5049735;28;20356;-45
2023/03/10 07:07:04;;;;;;;11.27;7.22;;;2.30;99.90;;;;;;5049759;28;20044;-45
2023/03/10 07:09:29;;;;;;;12.32;7.57;;;2.30;99.90;;;;;;5049270;28;20054;-45
2023/03/10 07:11:55;;;;;;;12.05;7.50;;;2.40;99.90;;;;;;5048758;28;20043;-46
2023/03/10 07:14:20;;;;;;;10.60;6.95;;;2.40;99.90;;;;;;5049778;28;20029;-47
2023/03/10 07:16:46;;;;;;;12.18;7.78;;;2.40;99.90;;;;;;5048219;28;20392;-45
2023/03/10 07:19:12;;;;;;;10.50;6.90;;;2.40;99.90;;;;;;5049942;28;20024;-45
2023/03/10 07:21:37;;;;;;;13.52;7.80;;;2.40;99.90;;;;;;5049143;28;20421;-45
2023/03/10 07:24:03;;;;;;;11.18;6.65;;;2.50;99.90;;;;;;5049684;28;20029;-48
2023/03/10 07:26:29;;;;;;;11.27;7.78;;;2.50;99.90;;;;;;5049182;28;20017;-45
2023/03/10 07:28:55;;;;;;;11.20;7.38;;;2.50;99.90;;;;;;5049886;28;20031;-45
2023/03/10 07:31:20;;;;;;;9.93;6.88;;;2.50;99.90;;;;;;5049517;28;20024;-45
2023/03/10 07:33:46;;;;;;;9.93;6.95;;;2.50;99.90;;;;;;5049456;28;20020;-45
2023/03/10 07:36:14;;;;;;;13.10;7.65;;;2.50;99.90;;;;;;5049469;28;20473;-46
2023/03/10 07:38:40;;;;;;;12.00;7.82;;;2.50;99.90;;;;;;5053093;28;20020;-45
2023/03/10 07:41:08;;;;;;;16.00;7.90;;;2.60;99.90;;;;;;5049267;28;20029;-45
2023/03/10 07:43:33;;;;;;;13.00;7.95;;;2.60;99.90;;;;;;5049162;28;20482;-45
2023/03/10 07:46:02;;;;;;;12.80;7.68;;;2.60;99.90;;;;;;5048488;28;20047;-45
2023/03/10 07:48:28;;;;;;;11.30;7.07;;;2.60;99.90;;;;;;5049400;28;20029;-45
2023/03/10 07:50:57;;;;;;;12.27;7.47;;;2.60;99.90;;;;;;5049544;28;20027;-45
2023/03/10 07:53:23;;;;;;;14.23;8.15;;;2.70;99.90;;;;;;5049297;28;20053;-46
2023/03/10 07:55:49;;;;;;;13.13;8.15;;;2.80;99.90;;;;;;5047831;28;20044;-45
2023/03/10 07:58:15;;;;;;;14.63;8.20;;;2.70;99.90;;;;;;5048982;28;20494;-46
2023/03/10 08:00:40;;;;;;;13.32;7.65;;;2.80;99.90;;;;;;5048684;28;20104;-48
2023/03/10 08:03:06;;;;;;;15.57;7.88;;;2.80;99.90;;;;;;5043045;28;20029;-45
2023/03/10 08:05:31;;;;;;;15.95;8.55;;;2.80;99.90;;;;;;5048590;28;20032;-45
2023/03/10 08:07:57;;;;;;;13.07;7.13;;;2.80;99.90;;;;;;5045206;28;20401;-38
2023/03/10 08:10:23;;;;;;;15.32;8.43;;;2.80;99.90;;;;;;5045051;28;20140;-38
2023/03/10 08:12:49;;;;;;;12.38;7.97;;;2.90;99.90;;;;;;5031764;28;20026;-39
2023/03/10 08:15:14;;;;;;;12.70;7.80;;;2.90;99.90;;;;;;5028646;28;20078;-39
2023/03/10 08:17:40;;;;;;;10.55;7.18;;;2.90;99.90;;;;;;5028521;28;20022;-39
2023/03/10 08:20:06;;;;;;;15.38;8.85;;;2.90;99.90;;;;;;5029109;28;20676;-39
2023/03/10 08:22:32;;;;;;;13.38;8.43;;;3.00;99.90;;;;;;5027250;28;20029;-39
2023/03/10 08:24:58;;;;;;;14.02;8.65;;;3.00;99.90;;;;;;5026938;28;20490;-39
2023/03/10 08:27:25;;;;;;;13.88;8.75;;;3.00;99.90;;;;;;5028643;28;20071;-39
2023/03/10 08:29:50;;;;;;;16.08;10.25;;;3.20;99.90;;;;;;5028555;28;20013;-39
2023/03/10 08:32:17;;;;;;;13.27;8.68;;;3.20;99.90;;;;;;5027154;28;20367;-39
2023/03/10 08:34:43;;;;;;;16.73;9.70;;;3.20;99.90;;;;;;5027906;28;20025;-38
2023/03/10 08:37:09;;;;;;;12.77;8.32;;;3.20;99.90;;;;;;5033035;28;20574;-45
2023/03/10 08:39:34;;;;;;;15.60;9.32;;;3.20;99.90;;;;;;5046812;28;20106;-45
2023/03/10 08:42:00;;;;;;;13.93;8.93;;;3.20;99.90;;;;;;5040002;28;20475;-45
2023/03/10 08:44:25;;;;;;;15.02;9.48;;;3.30;99.90;;;;;;5068530;28;20502;-45
2023/03/10 08:46:51;;;;;;;13.95;8.15;;;3.20;99.90;;;;;;5052580;28;20055;-44
2023/03/10 08:49:19;;;;;;;13.30;8.48;;;3.20;99.90;;;;;;5031513;28;20025;-45
2023/03/10 08:51:45;;;;;;;15.15;8.55;;;3.20;99.90;;;;;;5048534;28;20100;-45
2023/03/10 08:54:13;;;;;;;13.98;8.80;;;3.30;99.90;;;;;;5038860;28;20299;-45
2023/03/10 08:56:38;;;;;;;14.43;8.70;;;3.30;99.90;;;;;;5041608;28;20112;-45
2023/03/10 08:59:04;;;;;;;13.27;9.00;;;3.40;99.90;;;;;;5030381;28;20125;-45
2023/03/10 09:01:32;;;;;;;16.15;8.48;;;3.50;99.90;;;;;;5028915;28;20075;-45
2023/03/10 09:03:59;;;;;;;14.52;8.25;;;3.50;99.90;;;;;;5026921;28;20268;-45
2023/03/10 09:06:25;;;;;;;16.58;9.85;;;3.50;99.90;;;;;;5039599;28;20021;-44
2023/03/10 09:08:51;;;;;;;14.93;8.95;;;3.50;99.90;;;;;;5068083;28;20375;-44
2023/03/10 09:11:21;;;;;;;10.48;6.80;;;3.50;99.90;;;;;;5068139;28;20033;-45
2023/03/10 09:13:47;;;;;;;15.73;9.18;;;3.50;99.90;;;;;;5068235;28;20488;-45
2023/03/10 09:16:14;;;;;;;13.18;8.25;;;3.50;99.90;;;;;;5068424;28;20024;-45
2023/03/10 09:18:40;;;;;;;15.32;8.27;;;3.40;99.90;;;;;;5068060;28;20033;-45
2023/03/10 09:21:09;;;;;;;14.18;8.10;;;3.40;99.90;;;;;;5068024;28;20470;-44
2023/03/10 09:23:35;;;;;;;15.38;7.90;;;3.40;99.90;;;;;;5068463;28;20128;-45
2023/03/10 09:26:00;;;;;;;17.02;7.88;;;3.40;99.90;;;;;;5068354;28;20514;-46
2023/03/10 09:28:26;;;;;;;20.30;8.52;;;3.30;99.90;;;;;;5068546;28;20107;-48
2023/03/10 09:30:53;;;;;;;14.38;7.85;;;3.40;99.90;;;;;;5069073;28;20069;-45
2023/03/10 09:33:20;;;;;;;15.98;7.80;;;3.40;99.90;;;;;;5072234;28;20024;-45
2023/03/10 09:35:47;;;;;;;14.60;7.78;;;3.50;99.90;;;;;;5071656;28;20021;-45
2023/03/10 09:38:13;;;;;;;14.13;7.90;;;3.60;99.90;;;;;;5055347;28;20056;-45
2023/03/10 09:40:43;;;;;;;11.95;7.45;;;3.60;99.90;;;;;;5050221;28;20482;-45
2023/03/10 09:43:16;;;;;;;8.85;6.03;;;3.60;99.90;;;;;;5051878;28;20029;-46
2023/03/10 09:46:06;;;;;;;10.75;6.50;;;3.70;99.90;;;;;;5049716;28;20067;-45
2023/03/10 09:49:27;;;;;;;11.35;5.30;;;3.70;99.90;;;;;;5052032;28;20025;-45
2023/03/10 09:51:54;;;;;;;7.80;5.07;;;3.70;99.90;;;;;;4989565;28;20038;-46
2023/03/10 09:54:39;;;;;;;10.55;6.13;;;3.70;99.90;;;;;;5039060;28;20037;-46
2023/03/10 09:57:14;;;;;;;8.48;4.95;;;3.70;99.90;;;;;;5051869;28;20476;-45
2023/03/10 09:59:42;;;;;;;9.15;5.53;;;3.80;99.90;;;;;;5049894;28;20567;-45
2023/03/10 10:02:22;;;;;;;9.18;5.28;;;3.80;99.90;;;;;;5051853;28;20535;-45
2023/03/10 10:04:54;;;;;;;9.57;5.68;;;3.90;99.90;;;;;;5050949;28;20091;-45
2023/03/10 10:07:22;;;;;;;7.18;4.90;;;3.90;99.90;;;;;;5052034;28;20021;-45
2023/03/10 10:10:08;;;;;;;10.02;5.85;;;3.80;99.90;;;;;;5071075;28;20051;-45
2023/03/10 10:12:34;;;;;;;9.35;5.93;;;3.90;99.90;;;;;;5071630;28;20098;-45
2023/03/10 10:15:15;;;;;;;10.20;6.57;;;3.80;99.90;;;;;;5071572;28;20082;-46
2023/03/10 10:18:04;;;;;;;11.40;6.55;;;3.80;99.90;;;;;;5071286;28;20025;-46
2023/03/10 10:20:52;;;;;;;8.05;5.72;;;3.80;99.90;;;;;;5070886;28;20024;-48
2023/03/10 10:23:27;;;;;;;9.43;6.15;;;3.90;99.90;;;;;;5038091;28;20478;-46
2023/03/10 10:25:53;;;;;;;9.63;5.50;;;3.80;99.90;;;;;;5039209;28;20033;-46
2023/03/10 10:28:58;;;;;;;8.05;5.22;;;3.80;99.90;;;;;;5045851;28;20014;-45
2023/03/10 10:31:30;;;;;;;9.77;5.75;;;3.70;99.90;;;;;;5034144;28;20111;-46
2023/03/10 10:34:02;;;;;;;9.23;5.63;;;3.80;99.90;;;;;;5030195;28;20033;-46
2023/03/10 10:36:55;;;;;;;9.05;5.30;;;3.80;99.90;;;;;;5048233;28;20029;-46
2023/03/10 10:39:33;;;;;;;8.35;5.13;;;3.90;99.90;;;;;;5050680;28;20013;-45
2023/03/10 10:42:23;;;;;;;7.90;5.15;;;3.80;99.90;;;;;;5050388;28;20021;-45
2023/03/10 10:44:52;;;;;;;8.77;5.30;;;3.80;99.90;;;;;;5050024;28;20553;-46
2023/03/10 10:47:24;;;;;;;9.98;5.38;;;3.80;99.90;;;;;;5050506;28;20183;-45
2023/03/10 10:49:50;;;;;;;7.45;4.88;;;3.80;99.90;;;;;;5030206;28;20033;-46
2023/03/10 10:52:22;;;;;;;8.52;5.30;;;3.80;99.90;;;;;;5030669;28;20494;-46
2023/03/10 10:54:55;;;;;;;9.50;5.60;;;3.70;99.90;;;;;;5051289;28;20035;-46
2023/03/10 10:57:29;;;;;;;8.25;4.43;;;3.80;99.90;;;;;;5040218;28;20026;-47
2023/03/10 10:59:54;;;;;;;7.82;5.45;;;3.80;99.90;;;;;;5037823;28;20035;-46
2023/03/10 11:02:38;;;;;;;9.02;5.43;;;3.80;99.90;;;;;;5030679;28;20490;-48
2023/03/10 11:05:12;;;;;;;11.38;5.93;;;3.80;99.90;;;;;;5050554;28;20487;-46
2023/03/10 11:07:38;;;;;;;9.48;5.97;;;3.80;99.90;;;;;;5049156;28;20031;-46
2023/03/10 11:10:25;;;;;;;8.20;5.30;;;3.80;99.90;;;;;;5041663;28;20018;-46
2023/03/10 11:13:54;;;;;;;10.75;5.43;;;3.90;99.90;;;;;;5029628;28;20048;-46
2023/03/10 11:16:46;;;;;;;7.45;4.85;;;4.00;99.90;;;;;;4968145;28;20035;-49
2023/03/10 11:19:22;;;;;;;7.93;5.53;;;4.10;99.90;;;;;;5029958;28;20049;-45
2023/03/10 11:21:55;;;;;;;7.93;4.75;;;4.20;99.90;;;;;;5030291;28;20029;-47
2023/03/10 11:24:38;;;;;;;8.25;4.35;;;4.20;99.90;;;;;;5029864;28;20014;-48
2023/03/10 11:27:47;;;;;;;7.53;4.65;;;4.20;99.90;;;;;;5042473;28;20025;-46
2023/03/10 11:30:21;;;;;;;6.50;4.35;;;4.20;99.90;;;;;;5043937;28;20310;-45
2023/03/10 11:32:49;;;;;;;6.10;4.18;;;4.20;99.90;;;;;;5029839;28;20021;-45
2023/03/10 11:35:27;;;;;;;6.50;4.30;;;4.20;99.90;;;;;;5036861;28;20037;-46
2023/03/10 11:37:59;;;;;;;6.90;4.30;;;4.20;99.90;;;;;;5045466;28;20035;-46
2023/03/10 11:40:40;;;;;;;7.20;5.20;;;4.20;99.90;;;;;;5030027;28;20052;-46
2023/03/10 11:43:29;;;;;;;;;;;4.30;99.90;;;;;;5042742;28;20025;-47
2023/03/10 11:45:59;;;;;;;8.07;4.53;;;4.50;99.90;;;;;;5043221;28;19912;-45
2023/03/10 11:48:41;;;;;;;6.95;4.22;;;4.60;99.90;;;;;;5029322;28;20025;-46
2023/03/10 11:51:25;;;;;;;9.07;5.22;;;4.60;99.90;;;;;;5041534;28;20017;-49
2023/03/10 11:53:54;;;;;;;6.53;4.47;;;4.60;99.90;;;;;;5030577;28;20025;-46
2023/03/10 11:56:22;;;;;;;7.47;4.57;;;4.60;99.90;;;;;;5028792;28;20028;-46
2023/03/10 11:58:59;;;;;;;6.03;4.20;;;4.60;99.90;;;;;;5029386;28;20033;-46
2023/03/10 12:01:44;;;;;;;7.18;4.35;;;4.60;99.90;;;;;;5043625;28;20430;-45
2023/03/10 12:04:21;;;;;;;5.75;3.50;;;4.50;99.90;;;;;;5044899;28;20017;-46
2023/03/10 12:07:02;;;;;;;5.65;3.70;;;4.40;99.90;;;;;;5048840;28;20017;-46
2023/03/10 12:09:49;;;;;;;6.00;4.00;;;4.40;99.90;;;;;;5035048;28;20024;-46
2023/03/10 12:12:23;;;;;;;6.38;3.63;;;4.30;99.90;;;;;;5044873;28;20025;-46
2023/03/10 12:14:49;;;;;;;6.43;4.18;;;4.40;99.90;;;;;;5028815;28;20029;-45
2023/03/10 12:17:16;;;;;;;6.90;4.28;;;4.40;99.90;;;;;;5029211;28;20075;-46
2023/03/10 12:20:10;;;;;;;5.50;4.00;;;4.40;99.90;;;;;;5029012;28;20119;-45
2023/03/10 12:22:39;;;;;;;8.40;4.38;;;4.40;99.90;;;;;;5042391;28;20029;-46
2023/03/10 12:25:36;;;;;;;5.82;4.45;;;4.30;99.90;;;;;;5028356;28;20365;-45
2023/03/10 12:28:17;;;;;;;6.35;4.00;;;4.30;99.90;;;;;;5029876;28;20036;-46
2023/03/10 12:31:09;;;;;;;7.32;4.55;;;4.30;99.90;;;;;;5049348;28;20053;-46
2023/03/10 12:33:41;;;;;;;6.68;4.38;;;4.40;99.90;;;;;;5048529;28;20037;-45
2023/03/10 12:36:21;;;;;;;6.18;4.40;;;4.30;99.90;;;;;;5043701;28;20021;-45
2023/03/10 12:38:53;;;;;;;;;;;4.40;99.90;;;;;;5047752;28;20021;-46
2023/03/10 12:41:27;;;;;;;7.15;4.55;;;4.30;99.90;;;;;;5034202;28;19944;-46
2023/03/10 12:43:58;;;;;;;6.63;4.35;;;4.40;99.90;;;;;;5028524;28;20029;-46
2023/03/10 12:46:44;;;;;;;;;;;4.60;99.90;;;;;;5033534;28;20057;-45
2023/03/10 12:49:30;;;;;;;8.40;5.05;;;4.70;99.90;;;;;;5028511;28;19952;-46
2023/03/10 12:52:30;;;;;;;9.95;6.20;;;4.70;99.90;;;;;;5027206;28;20017;-46
2023/03/10 12:55:30;;;;;;;12.40;6.60;;;4.70;99.90;;;;;;5028296;28;20526;-45
2023/03/10 12:58:14;;;;;;;8.57;5.15;;;4.70;99.90;;;;;;5027629;28;20048;-45
2023/03/10 13:00:49;;;;;;;9.48;5.55;;;4.70;99.90;;;;;;5027292;28;20037;-46
2023/03/10 13:03:34;;;;;;;8.88;4.60;;;4.70;99.90;;;;;;5048317;28;20481;-46